createdAt,value
2023-03-22T00:01:28.523Z,5.35
2023-03-22T00:03:55.982Z,5.60
2023-03-22T00:06:23.938Z,5.65
2023-03-22T00:08:52.684Z,5.20
2023-03-22T00:11:20.917Z,5.38
2023-03-22T00:13:52.469Z,5.25
2023-03-22T00:16:20.983Z,5.18
2023-03-22T00:18:48.558Z,5.65
2023-03-22T00:21:17.885Z,5.32
2023-03-22T00:23:45.834Z,5.60
2023-03-22T00:26:14.422Z,5.72
2023-03-22T00:28:42.706Z,5.30
2023-03-22T00:31:12.011Z,5.40
2023-03-22T00:33:39.518Z,5.35
2023-03-22T00:36:09.716Z,5.40
2023-03-22T00:38:43.774Z,5.25
2023-03-22T00:41:13.914Z,4.90
2023-03-22T00:43:42.125Z,5.57
2023-03-22T00:46:11.884Z,5.38
2023-03-22T00:48:39.692Z,5.32
2023-03-22T00:51:08.329Z,5.95
2023-03-22T00:53:36.310Z,5.28
2023-03-22T00:56:04.283Z,5.57
2023-03-22T00:58:31.756Z,5.80
2023-03-22T01:00:59.567Z,6.00
2023-03-22T01:03:28.442Z,6.53
2023-03-22T01:05:56.336Z,6.53
2023-03-22T01:08:24.511Z,6.35
2023-03-22T01:10:51.988Z,5.93
2023-03-22T01:13:19.591Z,6.28
2023-03-22T01:15:47.729Z,5.70
2023-03-22T01:18:15.224Z,6.38
2023-03-22T01:20:44.069Z,6.20
2023-03-22T01:23:11.520Z,6.82
2023-03-22T01:25:38.980Z,6.88
2023-03-22T01:28:07.604Z,6.75
2023-03-22T01:30:35.403Z,6.95
2023-03-22T01:33:02.986Z,6.38
2023-03-22T01:35:30.641Z,6.88
2023-03-22T01:37:59.539Z,6.38
2023-03-22T01:40:27.599Z,7.20
2023-03-22T01:42:56.008Z,6.50
2023-03-22T01:45:40.157Z,6.78
2023-03-22T01:48:15.439Z,6.65
2023-03-22T01:50:46.640Z,7.32
2023-03-22T01:53:18.972Z,6.93
2023-03-22T01:55:47.866Z,6.93
2023-03-22T01:58:18.069Z,7.40
2023-03-22T02:00:46.794Z,7.30
2023-03-22T02:03:17.687Z,6.85
2023-03-22T02:05:45.375Z,7.25
2023-03-22T02:08:14.784Z,6.93
2023-03-22T02:10:43.910Z,7.18
2023-03-22T02:13:26.419Z,7.28
2023-03-22T02:16:06.461Z,6.72
2023-03-22T02:18:50.860Z,6.95
2023-03-22T02:21:48.940Z,6.85
2023-03-22T02:24:46.076Z,7.00
2023-03-22T02:27:37.499Z,7.40
2023-03-22T02:30:29.720Z,6.70
2023-03-22T02:33:20.822Z,7.28
2023-03-22T02:36:07.335Z,7.32
2023-03-22T02:38:57.602Z,6.70
2023-03-22T02:41:36.130Z,7.70
2023-03-22T02:44:10.290Z,7.15
2023-03-22T02:46:44.368Z,7.50
2023-03-22T02:49:18.844Z,6.93
2023-03-22T02:51:49.789Z,7.60
2023-03-22T02:54:23.344Z,7.47
2023-03-22T02:56:57.074Z,7.07
2023-03-22T02:59:26.740Z,7.72
2023-03-22T03:01:58.284Z,7.82
2023-03-22T03:04:29.909Z,7.03
2023-03-22T03:07:03.730Z,7.80
2023-03-22T03:09:34.006Z,7.68
2023-03-22T03:12:01.419Z,7.07
2023-03-22T03:14:30.571Z,8.02
2023-03-22T03:17:11.564Z,7.50
2023-03-22T03:19:44.949Z,6.82
2023-03-22T03:22:28.830Z,7.38
2023-03-22T03:25:07.201Z,8.25
2023-03-22T03:27:38.304Z,7.72
2023-03-22T03:30:13.300Z,7.55
2023-03-22T03:32:45.854Z,8.05
2023-03-22T03:35:22.294Z,6.88
2023-03-22T03:37:54.470Z,7.72
2023-03-22T03:40:26.426Z,7.03
2023-03-22T03:42:56.819Z,7.50
2023-03-22T03:45:25.766Z,7.63
2023-03-22T03:47:56.962Z,7.97
2023-03-22T03:50:26.213Z,7.05
2023-03-22T03:52:55.507Z,7.63
2023-03-22T03:55:25.479Z,7.50
2023-03-22T03:57:52.975Z,7.50
2023-03-22T04:00:20.846Z,7.68
2023-03-22T04:02:48.304Z,6.70
2023-03-22T04:05:16.693Z,7.00
2023-03-22T04:07:44.108Z,6.90
2023-03-22T04:10:11.819Z,6.63
2023-03-22T04:12:40.563Z,7.40
2023-03-22T04:15:09.041Z,7.40
2023-03-22T04:17:37.656Z,6.93
2023-03-22T04:20:06.192Z,6.97
2023-03-22T04:22:34.819Z,7.13
2023-03-22T04:25:02.421Z,7.28
2023-03-22T04:27:30.090Z,6.57
2023-03-22T04:30:00.920Z,6.38
2023-03-22T04:32:28.375Z,6.63
2023-03-22T04:34:55.905Z,6.57
2023-03-22T04:37:26.922Z,6.65
2023-03-22T04:39:54.503Z,6.13
2023-03-22T04:42:21.982Z,6.25
2023-03-22T04:44:49.512Z,6.70
2023-03-22T04:47:18.910Z,7.18
2023-03-22T04:49:46.370Z,7.13
2023-03-22T04:52:13.862Z,6.30
2023-03-22T04:54:41.452Z,6.78
2023-03-22T04:57:08.945Z,6.88
2023-03-22T04:59:36.388Z,6.20
2023-03-22T05:02:03.975Z,6.07
2023-03-22T05:04:32.798Z,6.57
2023-03-22T05:07:00.331Z,6.45
2023-03-22T05:09:27.928Z,6.10
2023-03-22T05:11:55.727Z,6.97
2023-03-22T05:14:23.247Z,5.75
2023-03-22T05:16:51.057Z,7.03
2023-03-22T05:19:22.185Z,7.20
2023-03-22T05:21:57.695Z,6.45
2023-03-22T05:24:25.297Z,6.60
2023-03-22T05:26:53.885Z,6.60
2023-03-22T05:29:22.527Z,5.78
2023-03-22T05:31:50.235Z,6.40
2023-03-22T05:34:17.802Z,6.35
2023-03-22T05:36:46.146Z,5.57
2023-03-22T05:39:15.864Z,6.13
2023-03-22T05:41:43.380Z,5.88
2023-03-22T05:44:11.096Z,6.10
2023-03-22T05:46:38.544Z,6.43
2023-03-22T05:49:06.011Z,5.65
2023-03-22T05:51:33.870Z,6.05
2023-03-22T05:54:01.339Z,6.10
2023-03-22T05:56:30.108Z,6.40
2023-03-22T05:58:58.064Z,6.03
2023-03-22T06:01:25.502Z,5.97
2023-03-22T06:03:53.006Z,5.90
2023-03-22T06:06:20.505Z,5.53
2023-03-22T06:08:47.955Z,5.70
2023-03-22T06:11:15.427Z,6.40
2023-03-22T06:13:44.239Z,6.03
2023-03-22T06:16:11.937Z,5.90
2023-03-22T06:18:39.477Z,5.22
2023-03-22T06:21:07.332Z,5.75
2023-03-22T06:23:35.829Z,5.15
2023-03-22T06:26:03.310Z,5.57
2023-03-22T06:28:30.757Z,5.35
2023-03-22T06:30:59.627Z,5.05
2023-03-22T06:33:27.080Z,5.20
2023-03-22T06:35:54.584Z,5.00
2023-03-22T06:38:22.036Z,5.15
2023-03-22T06:40:49.510Z,5.00
2023-03-22T06:43:17.010Z,5.80
2023-03-22T06:45:46.410Z,5.30
2023-03-22T06:48:15.796Z,4.43
2023-03-22T06:50:45.280Z,4.70
2023-03-22T06:53:12.971Z,4.88
2023-03-22T06:55:40.803Z,4.32
2023-03-22T06:58:08.487Z,4.90
2023-03-22T07:00:36.256Z,4.95
2023-03-22T07:03:03.743Z,5.07
2023-03-22T07:05:32.595Z,5.05
2023-03-22T07:08:00.130Z,4.50
2023-03-22T07:10:27.608Z,4.57
2023-03-22T07:12:55.268Z,4.30
2023-03-22T07:15:24.515Z,4.38
2023-03-22T07:17:52.335Z,4.40
2023-03-22T07:20:20.342Z,4.63
2023-03-22T07:22:50.767Z,4.38
2023-03-22T07:25:18.727Z,4.38
2023-03-22T07:27:46.268Z,4.30
2023-03-22T07:30:14.392Z,4.30
2023-03-22T07:32:41.994Z,3.80
2023-03-22T07:35:09.946Z,3.60
2023-03-22T07:37:37.595Z,3.67
2023-03-22T07:40:08.046Z,3.90
2023-03-22T07:42:35.483Z,3.53
2023-03-22T07:45:03.670Z,3.30
2023-03-22T07:47:40.725Z,3.58
2023-03-22T07:50:11.710Z,3.28
2023-03-22T07:52:39.556Z,3.58
2023-03-22T07:55:10.203Z,3.80
2023-03-22T07:57:38.300Z,3.15
2023-03-22T08:00:07.979Z,3.80
2023-03-22T08:02:35.502Z,3.20
2023-03-22T08:05:03.007Z,3.63
2023-03-22T08:07:31.500Z,3.10
2023-03-22T08:09:59.329Z,2.70
2023-03-22T08:12:28.924Z,3.33
2023-03-22T08:14:56.409Z,2.55
2023-03-22T08:17:26.153Z,2.83
2023-03-22T08:19:55.120Z,3.10
2023-03-22T08:22:25.948Z,3.30
2023-03-22T08:24:53.686Z,2.95
2023-03-22T08:27:21.446Z,2.70
2023-03-22T08:29:50.460Z,2.38
2023-03-22T08:32:18.364Z,2.65
2023-03-22T08:34:45.913Z,2.70
2023-03-22T08:37:13.634Z,2.72
2023-03-22T08:39:41.392Z,2.60
2023-03-22T08:42:08.863Z,3.60
2023-03-22T08:44:36.732Z,2.55
2023-03-22T08:47:06.014Z,2.80
2023-03-22T08:49:33.725Z,2.78
2023-03-22T08:52:01.191Z,2.97
2023-03-22T08:54:33.455Z,3.25
2023-03-22T08:57:03.400Z,2.63
2023-03-22T08:59:31.371Z,2.83
2023-03-22T09:01:59.118Z,2.38
2023-03-22T09:04:27.969Z,2.40
2023-03-22T09:06:55.509Z,3.05
2023-03-22T09:09:23.026Z,3.00
2023-03-22T09:11:50.734Z,3.22
2023-03-22T09:14:18.226Z,2.90
2023-03-22T09:16:45.713Z,3.20
2023-03-22T09:19:13.273Z,3.00
2023-03-22T09:21:42.612Z,3.15
2023-03-22T09:24:10.357Z,3.00
2023-03-22T09:26:37.974Z,3.00
2023-03-22T09:29:05.529Z,2.97
2023-03-22T09:31:33.063Z,3.08
2023-03-22T09:34:00.740Z,3.30
2023-03-22T09:36:28.336Z,2.83
2023-03-22T09:38:57.219Z,2.40
2023-03-22T09:41:32.567Z,2.50
2023-03-22T09:44:05.061Z,2.70
2023-03-22T09:46:36.840Z,2.25
2023-03-22T09:49:08.273Z,2.50
2023-03-22T09:51:40.815Z,2.72
2023-03-22T09:54:15.398Z,2.83
2023-03-22T09:56:45.052Z,2.50
2023-03-22T09:59:18.766Z,2.15
2023-03-22T10:01:52.520Z,2.20
2023-03-22T10:04:42.479Z,2.35
2023-03-22T10:07:27.040Z,2.50
2023-03-22T10:10:05.704Z,1.75
2023-03-22T10:12:39.390Z,2.15
2023-03-22T10:15:13.786Z,2.10
2023-03-22T10:17:44.830Z,2.22
2023-03-22T10:20:22.213Z,2.17
2023-03-22T10:22:53.288Z,2.45
2023-03-22T10:25:28.816Z,2.42
2023-03-22T10:27:57.891Z,2.10
2023-03-22T10:30:28.208Z,2.10
2023-03-22T10:33:01.503Z,2.35
2023-03-22T10:35:30.507Z,2.00
2023-03-22T10:38:01.473Z,2.20
2023-03-22T10:40:32.634Z,2.42
2023-03-22T10:43:04.359Z,1.92
2023-03-22T10:45:35.875Z,2.13
2023-03-22T10:48:08.078Z,1.85
2023-03-22T10:50:38.958Z,2.17
2023-03-22T10:53:08.563Z,1.90
2023-03-22T10:55:42.364Z,2.20
2023-03-22T10:58:14.591Z,2.33
2023-03-22T11:00:46.908Z,2.15
2023-03-22T11:03:27.833Z,1.92
2023-03-22T11:06:03.829Z,2.40
2023-03-22T11:08:39.968Z,2.45
2023-03-22T11:11:17.602Z,2.30
2023-03-22T11:13:51.309Z,1.98
2023-03-22T11:16:20.857Z,2.20
2023-03-22T11:18:48.571Z,2.30
2023-03-22T11:21:18.011Z,1.90
2023-03-22T11:23:54.904Z,2.30
2023-03-22T11:26:31.613Z,2.00
2023-03-22T11:29:13.859Z,2.05
2023-03-22T11:31:57.319Z,2.35
2023-03-22T11:34:27.472Z,2.13
2023-03-22T11:36:57.414Z,2.22
2023-03-22T11:39:28.264Z,1.95
2023-03-22T11:42:01.389Z,2.10
2023-03-22T11:44:33.888Z,1.88
2023-03-22T11:47:03.593Z,2.15
2023-03-22T11:49:40.437Z,2.13
2023-03-22T11:52:11.092Z,2.13
2023-03-22T11:54:42.211Z,1.98
2023-03-22T11:57:16.874Z,1.90
2023-03-22T11:59:50.962Z,2.08
2023-03-22T12:02:24.556Z,1.77
2023-03-22T12:04:57.250Z,1.83
2023-03-22T12:07:26.529Z,2.13
2023-03-22T12:10:00.248Z,1.98
2023-03-22T12:12:31.986Z,2.00
2023-03-22T12:15:04.941Z,1.90
2023-03-22T12:17:39.190Z,1.98
2023-03-22T12:20:17.268Z,2.10
2023-03-22T12:22:51.253Z,1.90
2023-03-22T12:25:22.412Z,1.80
2023-03-22T12:27:54.960Z,1.83
2023-03-22T12:30:26.275Z,1.85
2023-03-22T12:32:59.715Z,1.58
2023-03-22T12:35:31.400Z,1.80
2023-03-22T12:38:02.765Z,2.05
2023-03-22T12:40:34.688Z,1.80
2023-03-22T12:43:12.331Z,2.03
2023-03-22T12:45:43.408Z,1.90
2023-03-22T12:48:16.961Z,1.90
2023-03-22T12:50:48.332Z,2.10
2023-03-22T12:53:18.516Z,2.05
2023-03-22T12:55:47.767Z,2.13
2023-03-22T12:58:21.585Z,1.95
2023-03-22T13:00:52.161Z,1.90
2023-03-22T13:03:26.624Z,2.20
2023-03-22T13:06:02.619Z,2.30
2023-03-22T13:09:12.889Z,1.95
2023-03-22T13:11:41.000Z,2.03
2023-03-22T13:14:13.546Z,2.10
2023-03-22T13:16:50.748Z,1.70
2023-03-22T13:19:34.865Z,2.05
2023-03-22T13:22:16.723Z,2.20
2023-03-22T13:25:06.808Z,2.25
2023-03-22T13:27:40.055Z,2.53
2023-03-22T13:30:17.762Z,2.17
2023-03-22T13:32:54.530Z,2.08
2023-03-22T13:35:28.130Z,2.28
2023-03-22T13:38:03.034Z,2.28
2023-03-22T13:40:37.323Z,1.85
2023-03-22T13:43:25.886Z,2.07
2023-03-22T13:46:27.554Z,2.00
2023-03-22T13:49:16.430Z,2.28
2023-03-22T13:51:44.845Z,2.50
2023-03-22T13:54:23.788Z,2.60
2023-03-22T13:56:56.391Z,3.03
2023-03-22T13:59:30.772Z,2.40
2023-03-22T14:02:05.049Z,2.33
2023-03-22T14:04:39.331Z,2.30
2023-03-22T14:07:14.779Z,2.07
2023-03-22T14:09:47.757Z,2.30
2023-03-22T14:12:21.157Z,2.65
2023-03-22T14:14:54.227Z,2.20
2023-03-22T14:17:35.373Z,2.30
2023-03-22T14:20:08.537Z,2.25
